sensor_id;sensor_type;location;lat;lon;timestamp;P1;P2;P0
67376;PMS7003;54261;46.086;6.588;2023-12-29T04:39:48;14.00;9.00;7.00
67376;PMS7003;54261;46.086;6.588;2023-12-29T04:44:50;9.25;9.25;7.00
67376;PMS7003;54261;46.086;6.588;2023-12-29T04:50:10;8.75;8.75;5.25
67376;PMS7003;54261;46.086;6.588;2023-12-29T04:55:31;7.00;7.00;4.25
67376;PMS7003;54261;46.086;6.588;2023-12-29T05:00:51;8.25;8.00;7.00
67376;PMS7003;54261;46.086;6.588;2023-12-29T05:05:53;9.75;8.50;7.00
67376;PMS7003;54261;46.086;6.588;2023-12-29T05:10:55;11.00;10.00;8.00
67376;PMS7003;54261;46.086;6.588;2023-12-29T05:15:57;4.75;4.75;3.75
67376;PMS7003;54261;46.086;6.588;2023-12-29T05:20:59;8.25;8.25;7.50
67376;PMS7003;54261;46.086;6.588;2023-12-29T05:26:01;12.25;10.00;8.00
67376;PMS7003;54261;46.086;6.588;2023-12-29T05:31:03;5.75;5.75;4.00
67376;PMS7003;54261;46.086;6.588;2023-12-29T05:36:06;8.75;8.25;5.00
67376;PMS7003;54261;46.086;6.588;2023-12-29T05:41:11;9.50;9.00;8.00
67376;PMS7003;54261;46.086;6.588;2023-12-29T05:46:15;8.50;8.00;6.50
67376;PMS7003;54261;46.086;6.588;2023-12-29T05:51:17;9.75;9.75;5.50
67376;PMS7003;54261;46.086;6.588;2023-12-29T05:56:19;6.75;5.25;4.50
67376;PMS7003;54261;46.086;6.588;2023-12-29T06:01:23;8.00;8.00;6.75
67376;PMS7003;54261;46.086;6.588;2023-12-29T06:06:25;8.50;7.75;5.25
67376;PMS7003;54261;46.086;6.588;2023-12-29T15:56:23;11.50;11.25;9.00
67376;PMS7003;54261;46.086;6.588;2023-12-29T16:01:25;8.75;8.25;5.00
67376;PMS7003;54261;46.086;6.588;2023-12-29T16:06:31;5.00;5.00;4.00
67376;PMS7003;54261;46.086;6.588;2023-12-29T16:11:51;6.33;4.00;3.00
67376;PMS7003;54261;46.086;6.588;2023-12-29T16:17:15;4.00;3.00;3.00
67376;PMS7003;54261;46.086;6.588;2023-12-29T16:22:36;10.75;10.75;7.25
67376;PMS7003;54261;46.086;6.588;2023-12-29T16:27:38;10.00;9.00;5.25
67376;PMS7003;54261;46.086;6.588;2023-12-29T16:32:43;3.33;3.33;2.00
67376;PMS7003;54261;46.086;6.588;2023-12-29T16:37:45;2.33;2.33;1.33
67376;PMS7003;54261;46.086;6.588;2023-12-29T16:42:48;2.00;2.00;1.00
67376;PMS7003;54261;46.086;6.588;2023-12-29T16:47:51;3.33;1.33;1.33
67376;PMS7003;54261;46.086;6.588;2023-12-29T16:52:53;3.00;3.00;2.67
67376;PMS7003;54261;46.086;6.588;2023-12-29T16:57:55;5.67;4.67;4.00
67376;PMS7003;54261;46.086;6.588;2023-12-29T17:02:59;14.50;14.50;11.75
67376;PMS7003;54261;46.086;6.588;2023-12-29T17:08:01;4.25;4.25;4.00
67376;PMS7003;54261;46.086;6.588;2023-12-29T17:13:05;4.50;4.00;3.00
67376;PMS7003;54261;46.086;6.588;2023-12-29T17:18:06;9.50;9.50;7.00
67376;PMS7003;54261;46.086;6.588;2023-12-29T17:23:09;8.00;8.00;5.00
67376;PMS7003;54261;46.086;6.588;2023-12-29T17:28:30;11.00;8.75;8.00
67376;PMS7003;54261;46.086;6.588;2023-12-29T17:33:34;9.75;9.75;7.75
67376;PMS7003;54261;46.086;6.588;2023-12-29T17:38:36;6.50;6.50;5.00
67376;PMS7003;54261;46.086;6.588;2023-12-29T17:43:38;4.00;4.00;3.50
67376;PMS7003;54261;46.086;6.588;2023-12-29T17:48:40;6.75;5.50;5.00
67376;PMS7003;54261;46.086;6.588;2023-12-29T17:54:01;8.75;8.50;7.25
67376;PMS7003;54261;46.086;6.588;2023-12-29T17:59:04;3.00;3.00;3.00
67376;PMS7003;54261;46.086;6.588;2023-12-29T18:04:06;0.33;0.33;0.00
67376;PMS7003;54261;46.086;6.588;2023-12-29T18:09:08;4.00;4.00;1.67
67376;PMS7003;54261;46.086;6.588;2023-12-29T18:14:14;24.00;18.75;14.75
67376;PMS7003;54261;46.086;6.588;2023-12-29T18:19:16;66.75;53.25;33.50
67376;PMS7003;54261;46.086;6.588;2023-12-29T18:24:24;59.25;48.50;33.75
67376;PMS7003;54261;46.086;6.588;2023-12-29T18:29:26;73.50;57.25;36.75
67376;PMS7003;54261;46.086;6.588;2023-12-29T18:34:28;36.75;33.50;23.25
67376;PMS7003;54261;46.086;6.588;2023-12-29T18:39:30;24.50;23.00;17.00
67376;PMS7003;54261;46.086;6.588;2023-12-29T18:44:36;12.25;10.75;7.25
67376;PMS7003;54261;46.086;6.588;2023-12-29T18:49:38;11.75;11.50;9.75
67376;PMS7003;54261;46.086;6.588;2023-12-29T18:55:00;11.75;10.25;8.25
67376;PMS7003;54261;46.086;6.588;2023-12-29T19:00:02;9.00;7.33;6.00
67376;PMS7003;54261;46.086;6.588;2023-12-29T19:05:05;7.00;7.00;5.00
67376;PMS7003;54261;46.086;6.588;2023-12-29T19:10:07;4.00;2.33;2.00
67376;PMS7003;54261;46.086;6.588;2023-12-29T19:15:11;1.33;1.33;1.00
67376;PMS7003;54261;46.086;6.588;2023-12-29T19:20:13;4.50;4.50;4.00
67376;PMS7003;54261;46.086;6.588;2023-12-29T19:25:15;5.50;5.50;4.25
67376;PMS7003;54261;46.086;6.588;2023-12-29T19:30:17;19.00;18.00;14.00
67376;PMS7003;54261;46.086;6.588;2023-12-29T19:35:21;10.50;9.75;7.75
67376;PMS7003;54261;46.086;6.588;2023-12-29T19:40:23;14.25;13.00;11.00
67376;PMS7003;54261;46.086;6.588;2023-12-29T19:45:24;11.50;10.00;8.00
67376;PMS7003;54261;46.086;6.588;2023-12-29T19:50:26;9.50;9.50;7.25
67376;PMS7003;54261;46.086;6.588;2023-12-29T19:55:28;12.50;10.75;8.50
67376;PMS7003;54261;46.086;6.588;2023-12-29T20:00:30;12.75;10.50;8.50
67376;PMS7003;54261;46.086;6.588;2023-12-29T20:05:32;5.00;5.00;4.00
67376;PMS7003;54261;46.086;6.588;2023-12-29T20:10:35;6.25;5.75;4.75
67376;PMS7003;54261;46.086;6.588;2023-12-29T20:15:38;7.00;5.00;5.00
67376;PMS7003;54261;46.086;6.588;2023-12-29T20:20:40;4.00;4.00;3.00
67376;PMS7003;54261;46.086;6.588;2023-12-29T20:25:42;3.33;3.00;3.00
67376;PMS7003;54261;46.086;6.588;2023-12-29T20:30:46;5.00;4.00;3.00
67376;PMS7003;54261;46.086;6.588;2023-12-29T20:35:48;3.00;3.00;2.00
67376;PMS7003;54261;46.086;6.588;2023-12-29T20:40:50;4.00;4.00;2.00
67376;PMS7003;54261;46.086;6.588;2023-12-29T20:45:52;5.00;5.00;4.00
67376;PMS7003;54261;46.086;6.588;2023-12-29T20:50:57;1.67;1.00;1.00
67376;PMS7003;54261;46.086;6.588;2023-12-29T20:56:11;5.00;5.00;4.50
67376;PMS7003;54261;46.086;6.588;2023-12-29T21:01:13;7.75;6.00;5.00
67376;PMS7003;54261;46.086;6.588;2023-12-29T21:06:15;20.50;19.00;12.00
67376;PMS7003;54261;46.086;6.588;2023-12-29T21:11:18;20.50;17.75;13.50
67376;PMS7003;54261;46.086;6.588;2023-12-29T21:16:22;11.25;10.00;8.00
67376;PMS7003;54261;46.086;6.588;2023-12-29T21:21:24;4.25;4.00;3.25
